Time;durP1;ratioP1;P1;durP2;ratioP2;P2;SDS_P1;SDS_P2;PMS_P1;PMS_P2;Temp;Humidity;BMP_temperature;BMP_pressure;BME280_temperature;BME280_humidity;BME280_pressure;Samples;Min_cycle;Max_cycle;Signal;HPM_P1;HPM_P2
2021/01/05 00:00:28;;;;;;;57.50;37.75;;;;;;;;;;5067259;28;20370;-86
2021/01/05 00:02:54;;;;;;;60.53;38.37;;;;;;;;;;5071256;28;20840;-82
2021/01/05 00:05:22;;;;;;;57.85;37.72;;;;;;;;;;5053742;28;20374;-83
2021/01/05 00:07:48;;;;;;;58.78;37.35;;;;;;;;;;5071064;28;20386;-81
2021/01/05 00:10:14;;;;;;;58.50;38.15;;;;;;;;;;5053102;28;20719;-81
2021/01/05 00:12:40;;;;;;;59.92;38.50;;;;;;;;;;5053350;28;20949;-81
2021/01/05 00:15:07;;;;;;;56.13;37.33;;;;;;;;;;5070956;28;22631;-82
2021/01/05 00:17:33;;;;;;;60.20;38.55;;;;;;;;;;5072910;28;20389;-81
2021/01/05 00:19:59;;;;;;;61.63;39.20;;;;;;;;;;5056636;28;20392;-83
2021/01/05 00:22:25;;;;;;;63.15;40.03;;;;;;;;;;5053550;28;20368;-81
2021/01/05 00:24:51;;;;;;;67.60;40.72;;;;;;;;;;5038208;28;20368;-83
2021/01/05 00:27:17;;;;;;;66.63;41.20;;;;;;;;;;5076913;28;20885;-81
2021/01/05 00:29:43;;;;;;;62.77;38.67;;;;;;;;;;5094619;28;20390;-87
2021/01/05 00:32:21;;;;;;;63.35;39.88;;;;;;;;;;5076551;28;20360;-81
2021/01/05 00:34:47;;;;;;;61.78;39.15;;;;;;;;;;5095593;28;20360;-84
2021/01/05 00:37:14;;;;;;;64.67;40.07;;;;;;;;;;5094596;28;20368;-81
2021/01/05 00:39:40;;;;;;;64.18;39.63;;;;;;;;;;5076696;28;20376;-81
2021/01/05 00:42:06;;;;;;;64.00;39.95;;;;;;;;;;5094470;28;20384;-86
2021/01/05 00:44:32;;;;;;;62.40;39.63;;;;;;;;;;5076740;28;20413;-83
2021/01/05 00:46:58;;;;;;;63.50;40.88;;;;;;;;;;5076251;28;20712;-81
2021/01/05 00:49:24;;;;;;;66.93;40.25;;;;;;;;;;5056290;28;20973;-81
2021/01/05 00:51:50;;;;;;;64.85;39.05;;;;;;;;;;5089912;28;20365;-86
2021/01/05 00:54:16;;;;;;;64.43;40.05;;;;;;;;;;5076441;28;20459;-81
2021/01/05 00:56:56;;;;;;;67.55;42.28;;;;;;;;;;5063145;28;20937;-81
2021/01/05 00:59:22;;;;;;;68.35;42.28;;;;;;;;;;5054188;28;20352;-82
2021/01/05 01:01:48;;;;;;;63.45;39.30;;;;;;;;;;5070778;28;20833;-87
2021/01/05 01:04:14;;;;;;;69.47;41.73;;;;;;;;;;5074638;28;20358;-81
2021/01/05 01:06:40;;;;;;;66.95;41.30;;;;;;;;;;5073745;28;20449;-82
2021/01/05 01:09:06;;;;;;;74.43;43.20;;;;;;;;;;5074210;28;20413;-88
2021/01/05 01:11:32;;;;;;;71.40;42.42;;;;;;;;;;5074303;28;20362;-84
2021/01/05 01:13:58;;;;;;;69.10;42.70;;;;;;;;;;5055889;28;20374;-81
2021/01/05 01:16:24;;;;;;;70.40;42.10;;;;;;;;;;5068238;28;20377;-83
2021/01/05 01:18:50;;;;;;;64.00;41.10;;;;;;;;;;5058198;28;20636;-85
2021/01/05 01:21:16;;;;;;;64.35;41.50;;;;;;;;;;5073314;28;20354;-81
2021/01/05 01:23:44;;;;;;;69.72;42.58;;;;;;;;;;5055494;28;20390;-82
2021/01/05 01:26:10;;;;;;;68.40;42.42;;;;;;;;;;5073336;28;20437;-81
2021/01/05 01:28:37;;;;;;;68.38;43.08;;;;;;;;;;5073546;28;20471;-80
2021/01/05 01:31:03;;;;;;;65.55;42.05;;;;;;;;;;5076585;28;21144;-86
2021/01/05 01:33:29;;;;;;;66.10;42.40;;;;;;;;;;5073823;28;20358;-80
2021/01/05 01:35:55;;;;;;;61.78;40.42;;;;;;;;;;5055641;28;20948;-80
2021/01/05 01:38:21;;;;;;;62.28;40.83;;;;;;;;;;5055869;28;20374;-80
2021/01/05 01:40:47;;;;;;;63.92;41.00;;;;;;;;;;5072992;28;20725;-87
2021/01/05 01:43:13;;;;;;;61.03;40.43;;;;;;;;;;5073586;28;20358;-81
2021/01/05 01:45:39;;;;;;;55.38;37.08;;;;;;;;;;5073390;28;20378;-85
2021/01/05 01:48:08;;;;;;;58.13;39.35;;;;;;;;;;5055337;28;20402;-80
2021/01/05 01:50:34;;;;;;;59.78;40.42;;;;;;;;;;5072503;28;20366;-81
2021/01/05 01:53:03;;;;;;;58.75;39.67;;;;;;;;;;5072788;28;20434;-81
2021/01/05 01:55:47;;;;;;;56.92;38.83;;;;;;;;;;5055363;28;20372;-81
2021/01/05 01:58:32;;;;;;;58.40;39.33;;;;;;;;;;5055324;28;20381;-88
2021/01/05 02:01:17;;;;;;;55.72;37.38;;;;;;;;;;5054743;28;20849;-87
2021/01/05 02:04:01;;;;;;;54.83;38.03;;;;;;;;;;5072817;28;20369;-81
2021/01/05 02:06:30;;;;;;;56.08;39.22;;;;;;;;;;5072973;28;20442;-81
2021/01/05 02:08:56;;;;;;;54.17;38.40;;;;;;;;;;5072573;28;20393;-81
2021/01/05 02:11:36;;;;;;;54.88;38.88;;;;;;;;;;5054947;28;20388;-82
2021/01/05 02:14:21;;;;;;;56.60;39.17;;;;;;;;;;5073171;28;20461;-82
2021/01/05 02:17:07;;;;;;;53.47;36.88;;;;;;;;;;5054797;28;20763;-81
2021/01/05 02:19:37;;;;;;;54.80;38.88;;;;;;;;;;5052617;28;20376;-86
2021/01/05 02:22:22;;;;;;;53.08;38.65;;;;;;;;;;5053167;28;20378;-81
2021/01/05 02:24:58;;;;;;;54.40;38.53;;;;;;;;;;5055962;28;20448;-83
2021/01/05 02:27:24;;;;;;;53.88;38.47;;;;;;;;;;5070925;28;20444;-82
2021/01/05 02:29:52;;;;;;;53.20;37.58;;;;;;;;;;5071538;28;20358;-84
2021/01/05 02:32:42;;;;;;;53.10;38.60;;;;;;;;;;5077584;28;20358;-82
2021/01/05 02:35:18;;;;;;;50.50;36.25;;;;;;;;;;5057052;28;20412;-81
2021/01/05 02:37:59;;;;;;;49.17;35.97;;;;;;;;;;5076823;28;20379;-81
2021/01/05 02:40:25;;;;;;;48.63;35.15;;;;;;;;;;5068693;28;20506;-80
2021/01/05 02:43:10;;;;;;;48.03;35.83;;;;;;;;;;5054619;28;20464;-81
2021/01/05 02:45:42;;;;;;;41.97;33.33;;;;;;;;;;5073307;28;20369;-81
2021/01/05 02:48:14;;;;;;;44.65;34.38;;;;;;;;;;5055379;28;20872;-82
2021/01/05 02:50:43;;;;;;;44.40;34.00;;;;;;;;;;5054781;28;20841;-80
2021/01/05 02:53:27;;;;;;;45.47;34.28;;;;;;;;;;5072394;28;20362;-87
2021/01/05 02:55:56;;;;;;;43.53;33.15;;;;;;;;;;5055033;28;20398;-82
2021/01/05 02:58:41;;;;;;;42.85;33.30;;;;;;;;;;5072520;28;20419;-81
2021/01/05 03:01:26;;;;;;;45.67;34.85;;;;;;;;;;5072198;28;20359;-88
2021/01/05 03:03:52;;;;;;;44.67;34.75;;;;;;;;;;5054665;28;20366;-83
2021/01/05 03:06:18;;;;;;;48.60;36.55;;;;;;;;;;5054553;28;20413;-80
2021/01/05 03:08:48;;;;;;;45.83;34.85;;;;;;;;;;5054542;28;20965;-80
2021/01/05 03:11:16;;;;;;;47.13;35.58;;;;;;;;;;5085997;28;20369;-82
2021/01/05 03:13:45;;;;;;;47.22;35.55;;;;;;;;;;5075556;28;20442;-81
2021/01/05 03:16:16;;;;;;;47.27;36.07;;;;;;;;;;5092853;28;20933;-86
2021/01/05 03:18:56;;;;;;;48.42;36.25;;;;;;;;;;5092859;28;20359;-81
2021/01/05 03:21:31;;;;;;;45.40;34.75;;;;;;;;;;5088341;28;20357;-81
2021/01/05 03:23:58;;;;;;;44.30;34.50;;;;;;;;;;5073869;28;20389;-81
2021/01/05 03:26:39;;;;;;;46.27;35.07;;;;;;;;;;5054413;28;20367;-83
2021/01/05 03:29:06;;;;;;;42.58;33.15;;;;;;;;;;5054057;28;20398;-82
2021/01/05 03:31:52;;;;;;;40.72;33.20;;;;;;;;;;5071783;28;20376;-81
2021/01/05 03:34:18;;;;;;;44.58;34.78;;;;;;;;;;5054303;28;20374;-82
2021/01/05 03:36:45;;;;;;;43.47;34.00;;;;;;;;;;5069174;28;20433;-82
2021/01/05 03:39:11;;;;;;;43.75;33.15;;;;;;;;;;5091046;28;20368;-81
2021/01/05 03:41:37;;;;;;;41.35;33.13;;;;;;;;;;5062587;28;20381;-81
2021/01/05 03:44:03;;;;;;;40.50;32.67;;;;;;;;;;5053962;28;20785;-81
2021/01/05 03:46:30;;;;;;;43.30;34.15;;;;;;;;;;5054098;28;20398;-81
2021/01/05 03:48:56;;;;;;;46.00;35.22;;;;;;;;;;5071861;28;20433;-80
2021/01/05 03:51:23;;;;;;;45.63;35.33;;;;;;;;;;5072558;28;20384;-84
2021/01/05 03:53:49;;;;;;;45.55;35.65;;;;;;;;;;5075668;28;20358;-80
2021/01/05 03:56:15;;;;;;;45.78;35.88;;;;;;;;;;5067562;28;20395;-81
2021/01/05 03:58:41;;;;;;;44.05;34.30;;;;;;;;;;5079206;28;20377;-81
2021/01/05 04:01:07;;;;;;;47.05;35.45;;;;;;;;;;5066171;28;20406;-81
2021/01/05 04:03:33;;;;;;;44.38;32.97;;;;;;;;;;5057395;28;20458;-81
2021/01/05 04:06:00;;;;;;;44.80;34.70;;;;;;;;;;5075900;28;20350;-87
2021/01/05 04:08:28;;;;;;;42.58;33.40;;;;;;;;;;5057487;28;20414;-83
2021/01/05 04:10:54;;;;;;;44.30;34.67;;;;;;;;;;5083129;28;20356;-88
2021/01/05 04:13:20;;;;;;;45.22;34.00;;;;;;;;;;5095749;28;20380;-86
2021/01/05 04:15:46;;;;;;;40.40;33.00;;;;;;;;;;5095498;28;20838;-81
2021/01/05 04:18:12;;;;;;;43.38;33.67;;;;;;;;;;5076933;28;20372;-87
2021/01/05 04:20:38;;;;;;;45.22;35.45;;;;;;;;;;5071367;28;20852;-79
2021/01/05 04:23:04;;;;;;;47.67;36.35;;;;;;;;;;5066703;28;20448;-79
2021/01/05 04:25:30;;;;;;;45.78;34.95;;;;;;;;;;5076957;28;20715;-80
2021/01/05 04:27:56;;;;;;;46.50;35.25;;;;;;;;;;5095076;28;20384;-81
2021/01/05 04:30:30;;;;;;;43.72;34.25;;;;;;;;;;5091399;28;20426;-81
2021/01/05 04:32:58;;;;;;;44.63;34.55;;;;;;;;;;5094587;28;20353;-80
2021/01/05 04:35:24;;;;;;;46.90;35.40;;;;;;;;;;5074439;28;20374;-79
2021/01/05 04:37:51;;;;;;;43.35;33.75;;;;;;;;;;5094960;28;20422;-82
2021/01/05 04:40:20;;;;;;;41.85;33.13;;;;;;;;;;5094585;28;20364;-82
2021/01/05 04:42:47;;;;;;;42.00;33.90;;;;;;;;;;5036709;28;20384;-84
2021/01/05 04:45:21;;;;;;;39.15;31.20;;;;;;;;;;5040052;28;20878;-81
2021/01/05 04:47:54;;;;;;;38.95;31.90;;;;;;;;;;5056766;28;20394;-80
2021/01/05 04:50:22;;;;;;;37.10;30.30;;;;;;;;;;5074714;28;20411;-82
2021/01/05 04:52:57;;;;;;;36.78;29.67;;;;;;;;;;5076532;28;20372;-80
2021/01/05 04:55:34;;;;;;;35.75;30.35;;;;;;;;;;5089400;28;20373;-79
2021/01/05 04:58:06;;;;;;;36.55;30.08;;;;;;;;;;5056621;28;20394;-80
2021/01/05 05:00:35;;;;;;;36.17;29.60;;;;;;;;;;5056192;28;20444;-80
2021/01/05 05:03:40;;;;;;;36.38;29.00;;;;;;;;;;5063406;28;20445;-84
2021/01/05 05:06:15;;;;;;;35.97;30.70;;;;;;;;;;5008412;28;20480;-81
2021/01/05 05:08:41;;;;;;;37.05;30.17;;;;;;;;;;4976462;28;20451;-80
2021/01/05 05:11:12;;;;;;;42.77;33.63;;;;;;;;;;5024009;28;20381;-87
2021/01/05 05:13:59;;;;;;;39.38;31.65;;;;;;;;;;5074878;28;20916;-85
2021/01/05 05:16:44;;;;;;;39.20;31.33;;;;;;;;;;5071378;28;20396;-82
2021/01/05 05:19:25;;;;;;;43.23;33.27;;;;;;;;;;5074503;28;20411;-82
2021/01/05 05:21:58;;;;;;;40.28;32.92;;;;;;;;;;5077321;28;20374;-81
2021/01/05 05:24:54;;;;;;;42.53;33.58;;;;;;;;;;5072735;28;20725;-81
2021/01/05 05:27:20;;;;;;;39.60;31.60;;;;;;;;;;5045239;28;20398;-85
2021/01/05 05:29:48;;;;;;;42.03;33.33;;;;;;;;;;5073919;28;20375;-82
2021/01/05 05:32:37;;;;;;;39.45;32.15;;;;;;;;;;5077123;28;20354;-86
2021/01/05 05:35:03;;;;;;;39.40;31.83;;;;;;;;;;5058834;28;20389;-82
2021/01/05 05:37:35;;;;;;;37.00;32.08;;;;;;;;;;5046246;28;20399;-82
2021/01/05 05:40:01;;;;;;;39.13;32.40;;;;;;;;;;5040059;28;20865;-80
2021/01/05 05:42:44;;;;;;;43.87;33.70;;;;;;;;;;5078985;28;20388;-83
2021/01/05 05:45:13;;;;;;;41.17;32.42;;;;;;;;;;5084128;28;20389;-88
2021/01/05 05:47:52;;;;;;;41.83;32.10;;;;;;;;;;5058822;28;20404;-87
2021/01/05 05:50:23;;;;;;;43.10;34.03;;;;;;;;;;5085748;28;20455;-84
2021/01/05 05:52:53;;;;;;;41.05;32.42;;;;;;;;;;5063008;28;20396;-85
2021/01/05 05:55:25;;;;;;;43.22;32.70;;;;;;;;;;5055225;28;20369;-87
2021/01/05 05:57:58;;;;;;;43.50;33.03;;;;;;;;;;5068330;28;20487;-87
2021/01/05 06:00:44;;;;;;;43.15;31.85;;;;;;;;;;5064331;28;20885;-84
2021/01/05 06:03:12;;;;;;;45.97;33.67;;;;;;;;;;5084773;28;20360;-86
2021/01/05 06:05:39;;;;;;;50.47;34.67;;;;;;;;;;5098738;28;20396;-86
2021/01/05 06:08:05;;;;;;;48.95;35.05;;;;;;;;;;5074780;28;20389;-85
2021/01/05 06:10:39;;;;;;;49.75;34.15;;;;;;;;;;5060702;28;20392;-90
2021/01/05 06:13:09;;;;;;;49.42;35.50;;;;;;;;;;5074436;28;20432;-85
2021/01/05 06:15:35;;;;;;;53.28;36.45;;;;;;;;;;5075293;28;20372;-84
2021/01/05 06:18:02;;;;;;;48.93;34.70;;;;;;;;;;5074524;28;20383;-86
2021/01/05 06:20:31;;;;;;;47.93;33.43;;;;;;;;;;5061620;28;20440;-87
2021/01/05 06:22:58;;;;;;;51.58;34.15;;;;;;;;;;5054871;28;20378;-85
2021/01/05 06:25:24;;;;;;;54.00;36.03;;;;;;;;;;5054715;28;20473;-86
2021/01/05 06:27:50;;;;;;;49.42;35.08;;;;;;;;;;5071963;28;20398;-86
2021/01/05 06:30:16;;;;;;;50.92;35.58;;;;;;;;;;5053875;28;20593;-85
2021/01/05 06:32:42;;;;;;;52.90;35.70;;;;;;;;;;5073533;28;20773;-85
2021/01/05 06:35:09;;;;;;;49.55;34.50;;;;;;;;;;5089601;28;20465;-84
2021/01/05 06:37:35;;;;;;;49.20;34.35;;;;;;;;;;5067086;28;20477;-85
2021/01/05 06:40:04;;;;;;;55.05;35.63;;;;;;;;;;5054237;28;20756;-90
2021/01/05 06:42:30;;;;;;;56.05;36.40;;;;;;;;;;5082850;28;20481;-86
2021/01/05 06:44:56;;;;;;;49.45;33.92;;;;;;;;;;5054880;28;20848;-85
2021/01/05 06:47:22;;;;;;;51.08;34.88;;;;;;;;;;5060576;28;20468;-86
2021/01/05 06:49:51;;;;;;;51.83;35.65;;;;;;;;;;5073708;28;20438;-87
2021/01/05 06:52:17;;;;;;;50.85;35.42;;;;;;;;;;5053190;28;20897;-84
2021/01/05 06:54:43;;;;;;;49.92;33.60;;;;;;;;;;5053432;28;20374;-86
2021/01/05 06:57:09;;;;;;;51.10;34.63;;;;;;;;;;5065399;28;20376;-83
2021/01/05 06:59:36;;;;;;;49.90;33.75;;;;;;;;;;5052987;28;20436;-85
2021/01/05 07:02:03;;;;;;;54.53;35.13;;;;;;;;;;5061215;28;20729;-85
2021/01/05 07:04:29;;;;;;;51.67;34.42;;;;;;;;;;5073791;28;20433;-84
2021/01/05 07:06:56;;;;;;;54.78;36.03;;;;;;;;;;5061462;28;20786;-87
2021/01/05 07:09:22;;;;;;;51.03;33.75;;;;;;;;;;5073259;28;20384;-84
2021/01/05 07:11:49;;;;;;;51.92;35.05;;;;;;;;;;5064601;28;20378;-85
2021/01/05 07:14:16;;;;;;;54.03;36.33;;;;;;;;;;5072772;28;20380;-85
2021/01/05 07:16:42;;;;;;;50.80;34.70;;;;;;;;;;5084145;28;20458;-83
2021/01/05 07:19:08;;;;;;;48.67;33.70;;;;;;;;;;5073795;28;20453;-85
2021/01/05 07:21:34;;;;;;;53.10;34.33;;;;;;;;;;5067731;28;20364;-85
2021/01/05 07:24:03;;;;;;;47.10;32.58;;;;;;;;;;5055298;28;20358;-86
2021/01/05 07:26:32;;;;;;;50.92;33.78;;;;;;;;;;5079208;28;20393;-83
2021/01/05 07:28:58;;;;;;;51.75;34.13;;;;;;;;;;5092126;28;20394;-90
2021/01/05 07:31:26;;;;;;;49.37;34.70;;;;;;;;;;5085083;28;20759;-86
2021/01/05 07:33:52;;;;;;;46.55;32.08;;;;;;;;;;5057781;28;20442;-85
2021/01/05 07:36:27;;;;;;;47.03;32.27;;;;;;;;;;5063297;28;20867;-86
2021/01/05 07:38:53;;;;;;;48.72;33.33;;;;;;;;;;5073482;28;20391;-84
2021/01/05 07:41:19;;;;;;;50.83;34.08;;;;;;;;;;5085882;28;20433;-85
2021/01/05 07:43:46;;;;;;;45.03;32.17;;;;;;;;;;5090985;28;20413;-88
2021/01/05 07:46:12;;;;;;;43.75;31.60;;;;;;;;;;5090033;28;20387;-84
2021/01/05 07:48:38;;;;;;;44.53;31.27;;;;;;;;;;5094943;28;20391;-83
2021/01/05 07:51:08;;;;;;;45.63;31.73;;;;;;;;;;5075218;28;20370;-86
2021/01/05 07:53:34;;;;;;;45.63;31.90;;;;;;;;;;5089973;28;20470;-86
2021/01/05 07:56:03;;;;;;;43.30;32.08;;;;;;;;;;5093137;28;20361;-86
2021/01/05 07:58:29;;;;;;;45.83;32.40;;;;;;;;;;5075500;28;20907;-80
2021/01/05 08:00:55;;;;;;;43.92;30.60;;;;;;;;;;5076032;28;20404;-79
2021/01/05 08:03:21;;;;;;;42.03;31.43;;;;;;;;;;5057311;28;20367;-81
2021/01/05 08:05:46;;;;;;;45.75;32.80;;;;;;;;;;5076187;28;20374;-85
2021/01/05 08:08:13;;;;;;;45.40;31.73;;;;;;;;;;5075317;28;20394;-86
2021/01/05 08:10:39;;;;;;;44.38;30.88;;;;;;;;;;5075173;28;20385;-83
2021/01/05 08:13:07;;;;;;;45.38;31.45;;;;;;;;;;5075931;28;20374;-81
2021/01/05 08:15:33;;;;;;;41.72;31.00;;;;;;;;;;5060015;28;20760;-81
2021/01/05 08:17:59;;;;;;;40.60;29.15;;;;;;;;;;5077700;28;20378;-84
2021/01/05 08:20:27;;;;;;;44.25;31.85;;;;;;;;;;5074558;28;20366;-81
2021/01/05 08:22:53;;;;;;;42.42;29.48;;;;;;;;;;5074593;28;20367;-84
2021/01/05 08:25:19;;;;;;;43.40;31.55;;;;;;;;;;5075454;28;20362;-80
2021/01/05 08:27:48;;;;;;;39.45;29.52;;;;;;;;;;5073629;28;20402;-81
2021/01/05 08:30:15;;;;;;;40.05;29.17;;;;;;;;;;5076038;28;20365;-82
2021/01/05 08:32:41;;;;;;;41.47;30.77;;;;;;;;;;5056543;28;20933;-80
2021/01/05 08:35:07;;;;;;;42.53;31.17;;;;;;;;;;5075405;28;20374;-80
2021/01/05 08:37:36;;;;;;;41.72;30.58;;;;;;;;;;5074081;28;20381;-80
2021/01/05 08:40:03;;;;;;;40.33;30.15;;;;;;;;;;5074445;28;20385;-87
2021/01/05 08:42:29;;;;;;;42.72;29.98;;;;;;;;;;5074315;28;20396;-80
2021/01/05 08:44:55;;;;;;;41.92;30.85;;;;;;;;;;5056762;28;20382;-83
2021/01/05 08:47:21;;;;;;;42.80;29.40;;;;;;;;;;5074480;28;21011;-80
2021/01/05 08:49:47;;;;;;;40.40;29.43;;;;;;;;;;5074220;28;20390;-82
2021/01/05 08:52:13;;;;;;;39.95;30.30;;;;;;;;;;5058838;28;20393;-81
2021/01/05 08:54:39;;;;;;;38.22;29.17;;;;;;;;;;5074700;28;20362;-87
2021/01/05 08:57:05;;;;;;;40.50;30.23;;;;;;;;;;5075483;28;20351;-80
2021/01/05 08:59:31;;;;;;;39.25;29.50;;;;;;;;;;5094121;28;20434;-78
2021/01/05 09:01:57;;;;;;;38.15;27.88;;;;;;;;;;5059902;28;20735;-79
2021/01/05 09:04:23;;;;;;;41.80;30.50;;;;;;;;;;5074230;28;20761;-81
2021/01/05 09:06:50;;;;;;;36.40;27.55;;;;;;;;;;5074218;28;20354;-79
2021/01/05 09:09:16;;;;;;;38.85;28.88;;;;;;;;;;5073901;28;20394;-78
2021/01/05 09:11:42;;;;;;;37.95;27.98;;;;;;;;;;5074561;28;20356;-83
2021/01/05 09:14:08;;;;;;;41.03;29.70;;;;;;;;;;5079479;28;20449;-82
2021/01/05 09:16:35;;;;;;;40.50;29.60;;;;;;;;;;5077794;28;20890;-87
2021/01/05 09:19:01;;;;;;;39.75;29.10;;;;;;;;;;5074527;28;20453;-82
2021/01/05 09:21:30;;;;;;;38.90;29.65;;;;;;;;;;5074132;28;20829;-80
2021/01/05 09:24:00;;;;;;;35.75;28.45;;;;;;;;;;5077191;28;20362;-80
2021/01/05 09:26:28;;;;;;;37.97;28.77;;;;;;;;;;5088341;28;20360;-82
2021/01/05 09:28:54;;;;;;;37.47;28.95;;;;;;;;;;5072899;28;20888;-80
2021/01/05 09:31:20;;;;;;;35.88;28.30;;;;;;;;;;5073106;28;20413;-81
2021/01/05 09:33:47;;;;;;;41.00;30.07;;;;;;;;;;5073513;28;20499;-80
2021/01/05 09:36:13;;;;;;;38.65;28.55;;;;;;;;;;5073433;28;20385;-80
2021/01/05 09:38:40;;;;;;;38.40;29.50;;;;;;;;;;5084007;28;20362;-79
2021/01/05 09:41:07;;;;;;;36.92;29.58;;;;;;;;;;5076420;28;20370;-81
2021/01/05 09:43:33;;;;;;;39.42;30.90;;;;;;;;;;5054994;28;20856;-85
2021/01/05 09:45:59;;;;;;;42.45;30.67;;;;;;;;;;5073277;28;20453;-87
2021/01/05 09:48:25;;;;;;;38.75;30.00;;;;;;;;;;5072642;28;20730;-80
2021/01/05 09:50:51;;;;;;;39.07;29.03;;;;;;;;;;5055120;28;21326;-81
2021/01/05 09:53:17;;;;;;;41.40;30.13;;;;;;;;;;5073086;28;20703;-81
2021/01/05 09:55:43;;;;;;;43.28;30.20;;;;;;;;;;5047149;28;20865;-79
2021/01/05 09:58:09;;;;;;;37.80;29.10;;;;;;;;;;5052596;28;20390;-85
2021/01/05 10:00:35;;;;;;;39.63;30.47;;;;;;;;;;5075162;28;20362;-80
2021/01/05 10:03:01;;;;;;;36.95;28.13;;;;;;;;;;5074880;28;20424;-85
2021/01/05 10:05:27;;;;;;;35.78;27.67;;;;;;;;;;5077143;28;20847;-82
2021/01/05 10:07:54;;;;;;;39.92;28.90;;;;;;;;;;5076056;28;20434;-85
2021/01/05 10:10:24;;;;;;;38.08;27.70;;;;;;;;;;5072818;28;20424;-80
2021/01/05 10:12:50;;;;;;;38.22;27.27;;;;;;;;;;5072633;28;20821;-83
2021/01/05 10:15:16;;;;;;;37.95;28.30;;;;;;;;;;5072840;28;20361;-80
2021/01/05 10:17:42;;;;;;;39.53;28.50;;;;;;;;;;5051462;28;20915;-79
2021/01/05 10:20:10;;;;;;;38.97;29.77;;;;;;;;;;5060341;28;20382;-80
2021/01/05 10:22:36;;;;;;;41.38;29.90;;;;;;;;;;5072257;28;20366;-79
2021/01/05 10:25:02;;;;;;;37.22;27.77;;;;;;;;;;5072473;28;20778;-81
2021/01/05 10:27:28;;;;;;;38.72;28.55;;;;;;;;;;5062399;28;20394;-81
2021/01/05 10:29:55;;;;;;;40.97;28.50;;;;;;;;;;5071932;28;20362;-79
2021/01/05 10:32:21;;;;;;;43.75;30.80;;;;;;;;;;5071959;28;20370;-82
2021/01/05 10:34:47;;;;;;;43.00;29.85;;;;;;;;;;5054811;28;21067;-82
2021/01/05 10:37:13;;;;;;;45.33;30.90;;;;;;;;;;5073436;28;20366;-79
2021/01/05 10:39:39;;;;;;;42.65;29.13;;;;;;;;;;5072321;28;20833;-81
2021/01/05 10:42:14;;;;;;;49.17;31.38;;;;;;;;;;5072059;28;20366;-81
2021/01/05 10:44:40;;;;;;;50.38;31.50;;;;;;;;;;5071807;28;20366;-82
2021/01/05 10:47:06;;;;;;;49.00;31.83;;;;;;;;;;5071550;28;20369;-80
2021/01/05 10:49:32;;;;;;;46.13;30.10;;;;;;;;;;5071336;28;20459;-82
2021/01/05 10:52:00;;;;;;;44.80;30.77;;;;;;;;;;5076215;28;20872;-81
2021/01/05 10:54:28;;;;;;;47.97;30.65;;;;;;;;;;5062077;28;20366;-81
2021/01/05 10:57:02;;;;;;;44.10;30.67;;;;;;;;;;5067563;28;20682;-83
2021/01/05 10:59:28;;;;;;;44.65;29.95;;;;;;;;;;5070404;28;20358;-85
2021/01/05 11:01:58;;;;;;;48.88;31.17;;;;;;;;;;5069601;28;20401;-86
2021/01/05 11:04:25;;;;;;;48.27;31.47;;;;;;;;;;5071379;28;20856;-85
2021/01/05 11:06:52;;;;;;;45.88;29.92;;;;;;;;;;5072662;28;20719;-82
2021/01/05 11:09:18;;;;;;;50.60;31.40;;;;;;;;;;5068518;28;20460;-82
2021/01/05 11:11:44;;;;;;;49.95;31.55;;;;;;;;;;5066512;28;20454;-83
2021/01/05 11:14:10;;;;;;;48.55;30.60;;;;;;;;;;5051899;28;20407;-81
2021/01/05 11:16:36;;;;;;;51.78;32.00;;;;;;;;;;5073484;28;20372;-87
2021/01/05 11:19:01;;;;;;;52.92;31.98;;;;;;;;;;5062894;28;20366;-81
2021/01/05 11:21:35;;;;;;;52.20;32.33;;;;;;;;;;5080887;28;20709;-83
2021/01/05 11:24:01;;;;;;;51.33;31.20;;;;;;;;;;5046679;28;20383;-83
2021/01/05 11:26:26;;;;;;;49.45;32.00;;;;;;;;;;5064484;28;20463;-82
2021/01/05 11:28:52;;;;;;;49.75;30.10;;;;;;;;;;5075632;28;20447;-83
2021/01/05 11:31:18;;;;;;;47.33;31.57;;;;;;;;;;5069394;28;20782;-84
2021/01/05 11:33:44;;;;;;;46.95;30.48;;;;;;;;;;5072398;28;20449;-82
2021/01/05 11:36:13;;;;;;;44.75;29.95;;;;;;;;;;5072476;28;20906;-87
2021/01/05 11:38:39;;;;;;;46.22;30.05;;;;;;;;;;5054644;28;20728;-82
2021/01/05 11:41:07;;;;;;;47.20;30.67;;;;;;;;;;5071611;28;20369;-86
2021/01/05 11:43:33;;;;;;;47.63;30.95;;;;;;;;;;5071482;28;20405;-87
2021/01/05 11:45:58;;;;;;;44.92;28.98;;;;;;;;;;5071635;28;20394;-87
2021/01/05 11:48:37;;;;;;;43.45;29.10;;;;;;;;;;5071695;28;20401;-80
2021/01/05 11:51:03;;;;;;;45.25;30.23;;;;;;;;;;5071646;28;20366;-82
2021/01/05 11:53:29;;;;;;;40.33;28.00;;;;;;;;;;5073646;28;20702;-79
2021/01/05 11:55:57;;;;;;;40.90;28.65;;;;;;;;;;5050291;28;20391;-79
2021/01/05 11:58:23;;;;;;;40.92;27.77;;;;;;;;;;5052277;28;20372;-83
2021/01/05 12:00:49;;;;;;;40.05;27.55;;;;;;;;;;5053703;28;20399;-83
2021/01/05 12:03:15;;;;;;;39.80;27.40;;;;;;;;;;5062892;28;20366;-84
2021/01/05 12:05:48;;;;;;;40.97;27.13;;;;;;;;;;5071480;28;20373;-84
2021/01/05 12:08:14;;;;;;;39.97;26.70;;;;;;;;;;5071445;28;20453;-85
2021/01/05 12:10:40;;;;;;;40.22;26.35;;;;;;;;;;5069822;28;20841;-87
2021/01/05 12:13:06;;;;;;;39.60;26.33;;;;;;;;;;5072210;28;20385;-82
2021/01/05 12:15:44;;;;;;;37.83;25.50;;;;;;;;;;5062205;28;20388;-80
2021/01/05 12:18:11;;;;;;;40.85;26.67;;;;;;;;;;5095906;28;20375;-80
2021/01/05 12:20:39;;;;;;;37.58;26.15;;;;;;;;;;5088195;28;20470;-81
2021/01/05 12:23:06;;;;;;;39.87;27.03;;;;;;;;;;5059569;28;20411;-81
2021/01/05 12:25:32;;;;;;;37.75;25.42;;;;;;;;;;5059903;28;20446;-80
2021/01/05 12:27:58;;;;;;;39.65;27.00;;;;;;;;;;5064966;28;20444;-82
2021/01/05 12:30:25;;;;;;;35.00;24.23;;;;;;;;;;5086091;28;20358;-82
2021/01/05 12:32:51;;;;;;;35.90;24.92;;;;;;;;;;5067713;28;20376;-83
2021/01/05 12:35:17;;;;;;;36.90;25.92;;;;;;;;;;5094363;28;20441;-80
2021/01/05 12:37:43;;;;;;;35.70;25.88;;;;;;;;;;5068687;28;20422;-85
2021/01/05 12:40:09;;;;;;;38.28;26.55;;;;;;;;;;5075780;28;20392;-81
2021/01/05 12:42:35;;;;;;;37.50;25.08;;;;;;;;;;5090180;28;20357;-79
2021/01/05 12:45:01;;;;;;;38.37;25.97;;;;;;;;;;5095644;28;20933;-83
2021/01/05 12:47:27;;;;;;;38.83;26.40;;;;;;;;;;5061438;28;20404;-79
2021/01/05 12:49:53;;;;;;;40.85;27.60;;;;;;;;;;5075523;28;20489;-85
2021/01/05 12:52:19;;;;;;;41.88;27.13;;;;;;;;;;5060725;28;20748;-81
2021/01/05 12:54:45;;;;;;;44.80;28.70;;;;;;;;;;5075486;28;20450;-84
2021/01/05 12:57:13;;;;;;;39.03;26.67;;;;;;;;;;5090123;28;20430;-81
2021/01/05 12:59:41;;;;;;;41.78;27.20;;;;;;;;;;5076197;28;20368;-81
2021/01/05 13:02:17;;;;;;;43.25;27.95;;;;;;;;;;5089601;28;20360;-82
2021/01/05 13:04:43;;;;;;;42.95;28.70;;;;;;;;;;5096609;28;20361;-84
2021/01/05 13:07:09;;;;;;;45.15;29.88;;;;;;;;;;5075772;28;20395;-83
2021/01/05 13:09:38;;;;;;;45.72;28.52;;;;;;;;;;5076003;28;20404;-85
2021/01/05 13:12:04;;;;;;;45.20;28.63;;;;;;;;;;5083098;28;20451;-82
2021/01/05 13:14:33;;;;;;;41.78;28.45;;;;;;;;;;5069769;28;20377;-82
2021/01/05 13:17:00;;;;;;;43.63;29.30;;;;;;;;;;5062186;28;20388;-86
2021/01/05 13:19:26;;;;;;;44.10;29.33;;;;;;;;;;5057027;28;20377;-81
2021/01/05 13:21:53;;;;;;;43.78;29.52;;;;;;;;;;5059514;28;20386;-87
2021/01/05 13:24:21;;;;;;;40.17;27.97;;;;;;;;;;5049463;28;20512;-85
2021/01/05 13:26:49;;;;;;;42.22;29.30;;;;;;;;;;5070645;28;20405;-86
2021/01/05 13:29:19;;;;;;;43.20;29.50;;;;;;;;;;5055916;28;20455;-84
2021/01/05 13:32:04;;;;;;;45.05;30.30;;;;;;;;;;5053875;28;20885;-85
2021/01/05 13:34:32;;;;;;;48.13;30.60;;;;;;;;;;5043922;28;20859;-83
2021/01/05 13:37:02;;;;;;;46.60;31.15;;;;;;;;;;5061636;28;20372;-84
2021/01/05 13:39:29;;;;;;;48.83;30.27;;;;;;;;;;5066498;28;20817;-85
2021/01/05 13:42:02;;;;;;;46.03;30.23;;;;;;;;;;5058237;28;20423;-85
2021/01/05 13:44:29;;;;;;;47.60;30.15;;;;;;;;;;5051453;28;20362;-85
2021/01/05 13:47:00;;;;;;;48.10;30.17;;;;;;;;;;5072166;28;20858;-85
2021/01/05 13:49:27;;;;;;;46.90;29.85;;;;;;;;;;5067856;28;20922;-86
2021/01/05 13:52:10;;;;;;;46.15;28.92;;;;;;;;;;5064500;28;20885;-86
2021/01/05 13:54:37;;;;;;;49.08;30.75;;;;;;;;;;5069182;28;20379;-85
2021/01/05 13:57:08;;;;;;;47.35;30.17;;;;;;;;;;5072564;28;20368;-85
2021/01/05 13:59:34;;;;;;;44.30;29.98;;;;;;;;;;5070881;28;20366;-84
2021/01/05 14:02:06;;;;;;;47.92;30.95;;;;;;;;;;5087135;28;20369;-85
2021/01/05 14:04:35;;;;;;;46.42;29.27;;;;;;;;;;5055870;28;20375;-85
2021/01/05 14:07:05;;;;;;;45.47;29.80;;;;;;;;;;5070969;28;20411;-81
2021/01/05 14:09:32;;;;;;;44.95;28.27;;;;;;;;;;5072991;28;20393;-86
2021/01/05 14:12:00;;;;;;;42.67;28.08;;;;;;;;;;5074484;28;20477;-88
2021/01/05 14:14:27;;;;;;;47.22;29.67;;;;;;;;;;5074880;28;20412;-86
2021/01/05 14:16:54;;;;;;;50.88;30.33;;;;;;;;;;5064813;28;20376;-84
2021/01/05 14:19:21;;;;;;;46.83;28.92;;;;;;;;;;5069753;28;20736;-83
2021/01/05 14:21:47;;;;;;;50.33;29.80;;;;;;;;;;5086157;28;20365;-86
2021/01/05 14:24:33;;;;;;;47.38;30.33;;;;;;;;;;5090648;28;20370;-84